Time;durP1;ratioP1;P1;durP2;ratioP2;P2;SDS_P1;SDS_P2;PMS_P1;PMS_P2;Temp;Humidity;BMP_temperature;BMP_pressure;BME280_temperature;BME280_humidity;BME280_pressure;Samples;Min_cycle;Max_cycle;Signal;HPM_P1;HPM_P2
2021/12/18 00:00:44;;;;;;;159.25;143.57;;;;;;;-0.10;100.00;101583.34;4971784;28;20066;-79
2021/12/18 00:03:11;;;;;;;162.52;145.77;;;;;;;-0.16;100.00;101582.97;4974297;28;20050;-78
2021/12/18 00:05:38;;;;;;;154.15;138.57;;;;;;;-0.30;100.00;101581.41;4971624;28;20109;-78
2021/12/18 00:08:05;;;;;;;160.85;145.55;;;;;;;-0.28;100.00;101582.13;4971774;28;20047;-80
2021/12/18 00:10:33;;;;;;;162.55;147.45;;;;;;;-0.22;100.00;101591.28;4973769;28;20043;-78
2021/12/18 00:13:00;;;;;;;163.57;147.73;;;;;;;-0.24;100.00;101596.63;4974994;28;20483;-78
2021/12/18 00:15:29;;;;;;;161.40;145.48;;;;;;;-0.16;100.00;101590.81;4973315;28;20050;-81
2021/12/18 00:17:58;;;;;;;184.27;166.75;;;;;;;-0.33;100.00;101598.13;4973567;28;20055;-80
2021/12/18 00:20:26;;;;;;;179.40;160.52;;;;;;;-0.30;100.00;101597.09;4971388;28;20058;-80
2021/12/18 00:22:53;;;;;;;156.77;139.95;;;;;;;-0.38;100.00;101599.41;4975021;28;20062;-79
2021/12/18 00:25:21;;;;;;;153.52;137.35;;;;;;;-0.57;100.00;101592.13;4971941;28;20551;-82
2021/12/18 00:27:47;;;;;;;169.05;150.77;;;;;;;-0.34;100.00;101593.84;4974831;28;20112;-78
2021/12/18 00:30:14;;;;;;;193.77;162.00;;;;;;;-0.18;100.00;101597.91;4972747;28;20054;-78
2021/12/18 00:32:41;;;;;;;181.82;147.52;;;;;;;-0.19;100.00;101596.25;4970705;28;20377;-79
2021/12/18 00:35:09;;;;;;;184.52;164.73;;;;;;;-0.17;100.00;101603.03;4972629;28;20070;-79
2021/12/18 00:37:36;;;;;;;182.98;163.77;;;;;;;-0.14;100.00;101604.59;4971142;28;20451;-78
2021/12/18 00:40:08;;;;;;;169.95;151.95;;;;;;;-0.08;100.00;101604.97;4973746;28;20191;-80
2021/12/18 00:42:41;;;;;;;;;;;;;;;-0.09;100.00;101598.09;4974690;28;20055;-80
2021/12/18 00:45:10;;;;;;;212.68;192.48;;;;;;;-0.18;100.00;101606.63;4972496;28;19922;-80
2021/12/18 00:47:37;;;;;;;188.98;171.18;;;;;;;-0.21;100.00;101605.97;4971146;28;20106;-79
2021/12/18 00:50:06;;;;;;;160.65;144.68;;;;;;;-0.07;100.00;101608.41;4970820;28;20534;-78
2021/12/18 00:52:34;;;;;;;175.00;158.43;;;;;;;-0.21;100.00;101608.59;4970948;28;20043;-78
2021/12/18 00:55:01;;;;;;;168.55;152.75;;;;;;;-0.30;100.00;101600.53;4973158;28;20550;-82
2021/12/18 00:57:27;;;;;;;168.90;153.63;;;;;;;-0.25;100.00;101600.16;4974190;28;20117;-79
2021/12/18 00:59:59;;;;;;;162.00;147.40;;;;;;;-0.60;100.00;101594.94;4971003;28;20121;-80
2021/12/18 01:02:27;;;;;;;137.98;125.65;;;;;;;-0.70;100.00;101598.22;4971190;28;20050;-82
2021/12/18 01:04:53;;;;;;;161.00;147.00;;;;;;;-0.51;100.00;101596.88;4971021;28;20121;-80
2021/12/18 01:07:20;;;;;;;168.82;154.23;;;;;;;-0.49;100.00;101600.19;4970813;28;20055;-80
2021/12/18 01:10:00;;;;;;;151.15;137.45;;;;;;;-0.76;100.00;101596.03;4971087;28;20452;-79
2021/12/18 01:12:32;;;;;;;152.27;138.35;;;;;;;-0.76;100.00;101610.84;4971564;28;20055;-79
2021/12/18 01:15:11;;;;;;;164.75;150.73;;;;;;;-0.65;100.00;101603.09;4972174;28;20051;-78
2021/12/18 01:23:06;;;;;;;178.90;164.73;;;;;;;-0.79;100.00;101609.28;4971252;28;20096;-80
2021/12/18 01:25:35;;;;;;;194.18;178.98;;;;;;;-0.57;100.00;101605.16;4972717;28;20471;-80
2021/12/18 01:28:02;;;;;;;168.75;155.00;;;;;;;-0.35;100.00;101614.84;4972421;28;20051;-78
2021/12/18 01:30:29;;;;;;;170.25;155.48;;;;;;;-0.34;100.00;101604.28;4973882;28;20453;-79
2021/12/18 01:32:55;;;;;;;175.10;160.35;;;;;;;-0.42;100.00;101609.25;4973125;28;20069;-79
2021/12/18 01:35:23;;;;;;;146.73;133.40;;;;;;;-0.72;100.00;101604.50;4970551;28;20053;-83
2021/12/18 01:37:50;;;;;;;165.75;151.05;;;;;;;-0.46;100.00;101598.19;4969941;28;20055;-81
2021/12/18 01:40:21;;;;;;;211.63;188.45;;;;;;;-0.49;100.00;101594.97;4969679;28;20051;-79
2021/12/18 01:51:20;;;;;;;188.48;168.48;;;;;;;-0.51;100.00;101582.06;4974166;28;20109;-79
2021/12/18 01:53:47;;;;;;;214.32;193.50;;;;;;;-0.76;100.00;101576.94;4974232;28;20057;-79
2021/12/18 01:56:15;;;;;;;197.98;178.30;;;;;;;-0.64;100.00;101577.84;4975763;28;20105;-82
2021/12/18 01:58:45;;;;;;;202.88;184.25;;;;;;;-0.71;100.00;101580.88;4976142;28;20396;-79
2021/12/18 02:01:13;;;;;;;195.50;176.85;;;;;;;-0.73;100.00;101581.94;4975232;28;20458;-79
2021/12/18 02:03:40;;;;;;;205.93;188.00;;;;;;;-0.84;100.00;101576.69;4974609;28;20435;-82
2021/12/18 02:06:09;;;;;;;183.30;166.45;;;;;;;-0.99;100.00;101578.63;4973803;28;20172;-82
2021/12/18 02:08:38;;;;;;;179.48;163.50;;;;;;;-0.90;100.00;101585.78;4973724;28;20543;-79
2021/12/18 02:11:25;;;;;;;178.88;162.85;;;;;;;-0.80;100.00;101586.78;4971175;28;20070;-79
2021/12/18 02:14:09;;;;;;;175.65;159.77;;;;;;;-0.68;100.00;101581.63;4973692;28;20055;-81
2021/12/18 02:19:49;;;;;;;174.23;159.07;;;;;;;-0.50;100.00;101583.69;4971666;28;20053;-81
2021/12/18 02:22:20;;;;;;;199.73;183.15;;;;;;;-0.38;100.00;101581.16;4975036;28;20046;-80
2021/12/18 02:24:48;;;;;;;169.35;154.40;;;;;;;-0.49;100.00;101581.91;4973484;28;20925;-79
2021/12/18 02:27:14;;;;;;;185.32;168.80;;;;;;;-0.36;100.00;101582.69;4976930;28;20058;-81
2021/12/18 02:29:42;;;;;;;193.13;176.85;;;;;;;-0.35;100.00;101584.34;4972963;28;20058;-80
2021/12/18 02:32:10;;;;;;;189.63;172.85;;;;;;;-0.64;100.00;101583.88;4975648;28;20476;-83
2021/12/18 02:34:39;;;;;;;194.45;178.15;;;;;;;-0.58;100.00;101580.81;4974422;28;20119;-80
2021/12/18 02:37:07;;;;;;;184.65;169.18;;;;;;;-0.44;100.00;101587.66;4975271;28;20400;-81
2021/12/18 02:39:44;;;;;;;190.90;175.10;;;;;;;-0.37;100.00;101583.63;4975093;28;20479;-80
2021/12/18 02:42:17;;;;;;;169.13;154.02;;;;;;;-0.64;100.00;101596.09;4972534;28;20042;-80
2021/12/18 02:44:44;;;;;;;173.35;158.30;;;;;;;-0.58;100.00;101604.31;4972725;28;20047;-80
2021/12/18 02:47:12;;;;;;;176.93;161.18;;;;;;;-0.44;100.00;101597.25;4973843;28;20058;-83
2021/12/18 02:49:43;;;;;;;179.25;163.90;;;;;;;-0.38;100.00;101602.84;4975854;28;20057;-80
2021/12/18 02:52:10;;;;;;;175.60;161.02;;;;;;;-0.58;100.00;101609.53;4975309;28;20047;-80
2021/12/18 02:54:39;;;;;;;188.38;173.30;;;;;;;-0.62;100.00;101612.47;4974867;28;20046;-80
2021/12/18 02:57:06;;;;;;;177.07;162.48;;;;;;;-0.64;100.00;101616.97;4976006;28;20047;-80
2021/12/18 02:59:42;;;;;;;189.02;173.77;;;;;;;-0.65;100.00;101623.97;4975403;28;20046;-82
2021/12/18 03:02:09;;;;;;;185.65;170.38;;;;;;;-0.65;100.00;101630.97;5077260;23;20062;-80
2021/12/18 03:04:38;;;;;;;179.25;163.88;;;;;;;-0.90;100.00;101632.72;4971392;28;20055;-83
2021/12/18 03:07:07;;;;;;;178.10;163.35;;;;;;;-0.83;100.00;101633.94;4971386;28;20047;-80
2021/12/18 03:23:31;;;;;;;166.73;153.35;;;;;;;-1.30;100.00;101645.09;4967552;28;20563;-82
2021/12/18 03:26:00;;;;;;;158.38;145.02;;;;;;;-1.10;100.00;101651.53;4972047;28;20054;-81
2021/12/18 03:28:29;;;;;;;160.02;145.88;;;;;;;-1.17;100.00;101653.75;4969073;28;20046;-80
2021/12/18 03:30:56;;;;;;;151.98;138.90;;;;;;;-1.43;100.00;101648.56;4975033;28;20043;-80
2021/12/18 03:33:24;;;;;;;150.77;138.02;;;;;;;-1.57;100.00;101650.44;4968909;28;20047;-80
2021/12/18 03:35:51;;;;;;;197.07;179.18;;;;;;;-1.40;100.00;101665.75;4978345;28;20050;-80
2021/12/18 03:38:18;;;;;;;147.55;135.07;;;;;;;-1.52;100.00;101651.78;4976031;28;20145;-81
2021/12/18 03:40:44;;;;;;;149.48;136.88;;;;;;;-1.69;100.00;101654.72;4981161;28;20059;-80
2021/12/18 03:43:11;;;;;;;162.82;147.35;;;;;;;-1.43;100.00;101668.56;4965408;28;20051;-82
2021/12/18 03:45:39;;;;;;;138.98;126.00;;;;;;;-1.42;100.00;101672.88;4968259;28;20055;-82
2021/12/18 03:48:06;;;;;;;146.68;133.43;;;;;;;-1.40;100.00;101678.78;4972619;28;20051;-80
2021/12/18 03:50:33;;;;;;;147.60;134.90;;;;;;;-1.44;100.00;101674.72;4967713;28;20446;-80
2021/12/18 03:53:00;;;;;;;154.25;141.27;;;;;;;-1.49;100.00;101682.84;4972771;28;20050;-82
2021/12/18 03:55:27;;;;;;;149.48;136.70;;;;;;;-1.48;100.00;101686.31;4971142;28;20113;-80
2021/12/18 03:57:54;;;;;;;168.68;151.75;;;;;;;-1.42;100.00;101693.72;4972131;28;20571;-81
2021/12/18 04:00:21;;;;;;;168.43;153.98;;;;;;;-1.49;100.00;101695.06;4980676;28;20395;-80
2021/12/18 04:02:49;;;;;;;147.00;134.07;;;;;;;-1.52;100.00;101692.66;4972895;28;20483;-85
2021/12/18 04:05:17;;;;;;;151.38;138.50;;;;;;;-1.44;100.00;101692.97;4971250;28;20057;-80
2021/12/18 04:07:46;;;;;;;160.07;146.60;;;;;;;-1.33;100.00;101700.03;4968962;28;20467;-82
2021/12/18 04:10:15;;;;;;;152.07;139.10;;;;;;;-1.22;100.00;101694.94;4977262;28;20061;-80
2021/12/18 04:12:42;;;;;;;143.55;130.95;;;;;;;-1.25;100.00;101700.38;4975077;28;20487;-80
2021/12/18 04:15:10;;;;;;;167.70;153.13;;;;;;;-1.26;100.00;101703.94;4973363;28;20065;-80
2021/12/18 04:17:37;;;;;;;169.93;153.07;;;;;;;-1.13;100.00;101704.75;4971302;28;20125;-80
2021/12/18 04:20:06;;;;;;;175.68;157.40;;;;;;;-0.95;100.00;101718.28;4965692;28;20058;-82
2021/12/18 04:22:33;;;;;;;193.73;174.45;;;;;;;-0.89;100.00;101720.47;4967349;28;20447;-79
2021/12/18 04:24:59;;;;;;;197.38;177.40;;;;;;;-0.92;100.00;101728.50;4969972;28;20121;-80
2021/12/18 04:27:26;;;;;;;191.82;173.25;;;;;;;-0.90;100.00;101734.44;4977663;28;20054;-80
2021/12/18 04:29:53;;;;;;;182.05;164.73;;;;;;;-0.99;100.00;101732.47;4979157;28;20470;-79
2021/12/18 04:32:20;;;;;;;187.35;170.88;;;;;;;-0.86;100.00;101738.50;4974762;28;20047;-80
2021/12/18 04:34:47;;;;;;;184.05;166.75;;;;;;;-0.93;100.00;101737.28;4976492;28;20043;-81
2021/12/18 04:37:15;;;;;;;178.40;161.93;;;;;;;-1.31;100.00;101734.66;4975803;28;20046;-82
2021/12/18 04:39:42;;;;;;;167.10;151.50;;;;;;;-1.31;100.00;101743.31;4971544;28;20051;-82
2021/12/18 04:42:08;;;;;;;172.88;157.68;;;;;;;-1.34;100.00;101745.31;4967702;28;20089;-80
2021/12/18 04:44:35;;;;;;;168.85;153.40;;;;;;;-1.51;100.00;101747.28;4975753;28;20137;-83
2021/12/18 04:47:03;;;;;;;160.55;146.18;;;;;;;-1.47;100.00;101751.34;4966460;28;20051;-80
2021/12/18 04:49:30;;;;;;;170.40;154.35;;;;;;;-1.28;100.00;101750.09;4974989;28;20125;-80
2021/12/18 04:51:57;;;;;;;171.95;155.63;;;;;;;-1.32;100.00;101749.47;4965938;28;20051;-79
2021/12/18 04:54:25;;;;;;;278.80;218.07;;;;;;;-1.31;100.00;101753.75;4971112;28;20050;-79
2021/12/18 04:56:52;;;;;;;241.00;216.95;;;;;;;-1.35;100.00;101761.91;4970947;28;20063;-81
2021/12/18 04:59:19;;;;;;;234.07;211.15;;;;;;;-1.41;100.00;101763.97;4965618;28;20117;-81
2021/12/18 05:01:45;;;;;;;202.98;181.05;;;;;;;-1.56;100.00;101757.16;4968231;28;20125;-82
2021/12/18 05:04:14;;;;;;;191.40;170.80;;;;;;;-1.57;100.00;101763.31;4965446;28;20047;-83
2021/12/18 05:06:44;;;;;;;192.85;171.88;;;;;;;-1.80;100.00;101762.22;4967434;28;20090;-80
2021/12/18 05:09:12;;;;;;;172.63;154.15;;;;;;;-1.90;100.00;101767.19;4970769;28;20089;-80
2021/12/18 05:11:41;;;;;;;184.73;166.23;;;;;;;-1.81;100.00;101767.53;4969472;28;20117;-80
2021/12/18 05:14:08;;;;;;;180.68;161.13;;;;;;;-1.76;100.00;101762.84;4966919;28;20117;-80
2021/12/18 05:16:35;;;;;;;172.23;153.85;;;;;;;-1.63;100.00;101769.78;4971024;28;20397;-80
2021/12/18 05:19:02;;;;;;;184.88;165.18;;;;;;;-1.63;100.00;101769.78;4965173;28;20058;-81
2021/12/18 05:21:29;;;;;;;183.05;164.05;;;;;;;-1.61;100.00;101780.06;4975287;28;20130;-83
2021/12/18 05:23:56;;;;;;;182.55;163.88;;;;;;;-1.62;100.00;101792.28;4968430;28;20043;-84
2021/12/18 05:26:22;;;;;;;170.43;154.30;;;;;;;-1.64;100.00;101798.50;4973504;28;20054;-80
2021/12/18 05:28:51;;;;;;;203.30;185.55;;;;;;;-1.57;100.00;101799.81;4973322;28;20471;-81
2021/12/18 05:31:17;;;;;;;201.00;182.60;;;;;;;-1.40;100.00;101796.91;4967586;28;20121;-81
2021/12/18 05:33:46;;;;;;;188.85;171.27;;;;;;;-1.34;100.00;101808.69;4971601;28;20464;-80
2021/12/18 05:36:31;;;;;;;171.13;154.65;;;;;;;-1.32;100.00;101817.25;4968165;28;20058;-82
2021/12/18 05:39:01;;;;;;;164.95;148.40;;;;;;;-1.22;100.00;101817.47;4968075;28;20051;-82
2021/12/18 05:41:28;;;;;;;179.20;162.23;;;;;;;-1.12;100.00;101815.94;4973819;28;20054;-82
2021/12/18 05:43:56;;;;;;;160.27;144.15;;;;;;;-1.18;100.00;101826.75;4972917;28;20490;-81
2021/12/18 05:46:23;;;;;;;150.65;135.10;;;;;;;-1.27;100.00;101809.97;4965425;28;20042;-79
2021/12/18 05:48:50;;;;;;;142.85;129.00;;;;;;;0.08;100.00;101818.88;4972529;28;20125;-80
2021/12/18 05:51:17;;;;;;;187.88;169.60;;;;;;;-0.82;100.00;101822.59;4932906;28;20051;-81
2021/12/18 05:53:44;;;;;;;223.30;200.18;;;;;;;-1.06;100.00;101799.03;4963475;28;20047;-81
2021/12/18 05:56:11;;;;;;;267.10;234.65;;;;;;;-1.00;100.00;101809.91;4973984;28;20074;-81
2021/12/18 05:58:38;;;;;;;209.57;184.48;;;;;;;0.86;100.00;101807.03;4961367;28;20480;-80
2021/12/18 06:01:06;;;;;;;229.07;199.90;;;;;;;0.30;100.00;101819.91;4963373;28;20114;-80
2021/12/18 06:03:33;;;;;;;237.68;205.20;;;;;;;0.15;100.00;101829.69;4979937;28;20055;-82
2021/12/18 06:06:00;;;;;;;186.05;167.40;;;;;;;-0.77;100.00;101817.91;4977485;28;20051;-82
2021/12/18 06:08:27;;;;;;;185.52;167.50;;;;;;;-0.71;100.00;101833.16;4974854;28;20051;-79
2021/12/18 06:10:55;;;;;;;172.43;155.77;;;;;;;-0.52;100.00;101837.91;4974142;28;20133;-80
2021/12/18 06:13:23;;;;;;;174.10;157.57;;;;;;;-0.46;100.00;101835.72;4971723;28;20035;-79
2021/12/18 06:15:50;;;;;;;180.65;163.23;;;;;;;-0.36;100.00;101841.16;4969262;28;20058;-78
2021/12/18 06:18:18;;;;;;;157.80;141.93;;;;;;;-0.42;100.00;101857.25;4970293;28;20475;-78
2021/12/18 06:20:45;;;;;;;188.70;169.48;;;;;;;-0.37;100.00;101859.53;4970192;28;20133;-78
2021/12/18 06:23:12;;;;;;;194.30;173.80;;;;;;;0.28;100.00;101864.47;4971359;28;20456;-79
2021/12/18 06:25:39;;;;;;;194.07;174.07;;;;;;;0.62;100.00;101869.84;4973098;28;20050;-78
2021/12/18 06:28:06;;;;;;;222.93;200.43;;;;;;;0.94;100.00;101871.84;4970739;28;20479;-78
2021/12/18 06:30:33;;;;;;;225.00;200.88;;;;;;;0.65;100.00;101880.09;4972308;28;20043;-78
2021/12/18 06:32:59;;;;;;;292.00;261.25;;;;;;;0.72;100.00;101876.06;4971819;28;20050;-79
2021/12/18 06:35:27;;;;;;;261.17;233.77;;;;;;;0.32;100.00;101886.81;4973495;28;20047;-80
2021/12/18 06:37:54;;;;;;;241.35;216.35;;;;;;;0.42;100.00;101900.03;4974981;28;20058;-79
2021/12/18 06:40:21;;;;;;;225.98;202.20;;;;;;;0.29;100.00;101894.03;4972226;28;20503;-79
2021/12/18 06:42:48;;;;;;;241.30;216.60;;;;;;;0.47;100.00;101905.78;4973301;28;20042;-79
2021/12/18 06:45:14;;;;;;;197.48;178.95;;;;;;;0.33;100.00;101916.38;4974244;28;20106;-78
2021/12/18 06:47:41;;;;;;;170.73;155.00;;;;;;;0.37;100.00;101908.22;4974305;28;20078;-79
2021/12/18 06:50:09;;;;;;;268.00;189.18;;;;;;;0.49;100.00;101921.38;4968302;28;20121;-79
2021/12/18 06:52:37;;;;;;;208.18;159.95;;;;;;;0.48;100.00;101925.75;4976350;28;20416;-78
2021/12/18 06:55:05;;;;;;;189.98;167.90;;;;;;;0.49;100.00;101935.28;4971570;28;20411;-79
2021/12/18 06:57:32;;;;;;;198.27;180.02;;;;;;;0.42;100.00;101923.56;4975796;28;20042;-78
2021/12/18 06:59:59;;;;;;;189.70;169.43;;;;;;;0.48;100.00;101930.97;4967429;28;20114;-78
2021/12/18 07:02:26;;;;;;;179.77;162.02;;;;;;;3.57;100.00;101932.06;4968661;28;20124;-81
2021/12/18 07:04:53;;;;;;;223.23;203.57;;;;;;;4.60;100.00;101931.00;4968919;28;20046;-80
2021/12/18 07:07:20;;;;;;;243.95;222.77;;;;;;;5.25;100.00;101933.88;4971929;28;20050;-79
2021/12/18 07:09:48;;;;;;;269.27;247.07;;;;;;;2.51;100.00;101935.56;4970041;28;20050;-79
2021/12/18 07:12:15;;;;;;;193.20;176.98;;;;;;;1.22;100.00;101933.44;4962850;28;20109;-79
2021/12/18 07:14:42;;;;;;;184.52;168.88;;;;;;;1.05;100.00;101943.34;4962353;28;20055;-80
2021/12/18 07:17:08;;;;;;;178.60;163.05;;;;;;;1.02;100.00;101940.13;4962591;28;20050;-80
2021/12/18 07:19:35;;;;;;;188.50;171.18;;;;;;;0.96;100.00;101949.28;4963599;28;20664;-81
2021/12/18 07:22:02;;;;;;;211.13;191.77;;;;;;;1.05;100.00;101942.53;4964736;28;20105;-78
2021/12/18 07:24:29;;;;;;;197.68;179.27;;;;;;;0.98;100.00;101934.31;4971229;28;20082;-79
2021/12/18 07:26:57;;;;;;;192.48;174.27;;;;;;;0.97;100.00;101950.97;4963014;28;20106;-79
2021/12/18 07:29:24;;;;;;;182.63;165.40;;;;;;;1.05;100.00;101955.59;4963053;28;20113;-79
2021/12/18 07:31:51;;;;;;;189.40;171.60;;;;;;;1.33;100.00;101951.75;4964671;28;20118;-78
2021/12/18 07:34:18;;;;;;;158.07;145.35;;;;;;;1.36;100.00;101951.53;4963604;28;20051;-79
2021/12/18 07:36:44;;;;;;;125.65;115.78;;;;;;;1.74;100.00;101953.03;4964130;28;20300;-79
2021/12/18 07:39:12;;;;;;;121.25;112.13;;;;;;;1.87;100.00;101958.97;4971267;28;20051;-80
2021/12/18 07:41:38;;;;;;;118.47;109.88;;;;;;;1.76;100.00;101967.69;4963282;28;20098;-78
2021/12/18 07:44:07;;;;;;;112.82;104.20;;;;;;;1.68;100.00;101966.59;4964486;28;20076;-80
2021/12/18 07:46:34;;;;;;;111.93;103.50;;;;;;;1.74;100.00;101966.94;4963768;28;20078;-78
2021/12/18 07:49:01;;;;;;;114.88;106.60;;;;;;;1.94;100.00;101970.66;4963398;28;20055;-78
2021/12/18 07:51:27;;;;;;;113.20;104.97;;;;;;;1.89;100.00;101970.19;4962357;28;20055;-79
2021/12/18 07:53:54;;;;;;;104.72;97.20;;;;;;;1.91;100.00;101976.16;4972373;28;20055;-79
2021/12/18 07:56:21;;;;;;;111.82;103.93;;;;;;;1.96;100.00;101973.16;4963792;28;20058;-80
2021/12/18 07:58:49;;;;;;;100.30;93.22;;;;;;;1.94;100.00;101962.81;4963901;28;20054;-79
2021/12/18 08:01:17;;;;;;;99.28;91.95;;;;;;;2.10;100.00;101959.00;4968506;28;20428;-80
2021/12/18 08:03:44;;;;;;;100.45;93.82;;;;;;;2.09;100.00;101960.78;4964110;28;20499;-80
2021/12/18 08:06:11;;;;;;;100.38;93.32;;;;;;;2.26;100.00;101959.44;4963100;28;20117;-79
2021/12/18 08:08:38;;;;;;;102.65;95.95;;;;;;;2.56;100.00;101956.16;4964749;28;20051;-80
2021/12/18 08:11:05;;;;;;;90.43;84.32;;;;;;;2.94;100.00;101955.69;4963654;28;20074;-81
2021/12/18 08:13:32;;;;;;;106.35;98.50;;;;;;;3.66;100.00;101968.06;4962128;28;20559;-79
2021/12/18 08:15:58;;;;;;;84.47;79.00;;;;;;;3.31;100.00;101967.56;4962078;28;20051;-80
2021/12/18 08:18:26;;;;;;;83.70;77.90;;;;;;;3.66;100.00;101961.94;4964011;28;20114;-80
2021/12/18 08:20:53;;;;;;;91.40;85.43;;;;;;;4.28;100.00;101973.28;4964052;28;20476;-79
2021/12/18 08:23:20;;;;;;;88.10;82.20;;;;;;;4.74;100.00;101972.69;4970549;28;20488;-80
2021/12/18 08:25:48;;;;;;;77.38;72.68;;;;;;;5.48;100.00;101971.28;4961817;28;20110;-80
2021/12/18 08:28:15;;;;;;;70.07;66.18;;;;;;;5.69;100.00;101974.56;4963000;28;20051;-80
2021/12/18 08:30:42;;;;;;;67.50;63.80;;;;;;;6.21;100.00;101978.56;4963618;28;20493;-80
2021/12/18 08:33:08;;;;;;;66.05;62.25;;;;;;;6.93;100.00;101982.13;4968163;28;20468;-80
2021/12/18 08:35:37;;;;;;;62.35;58.95;;;;;;;7.08;100.00;101980.59;4963673;28;20121;-79
2021/12/18 08:38:05;;;;;;;64.35;60.65;;;;;;;7.63;100.00;101974.28;4968024;28;20117;-80
2021/12/18 08:40:34;;;;;;;61.10;57.60;;;;;;;8.01;100.00;101971.16;4962879;28;20110;-80
2021/12/18 08:43:01;;;;;;;61.45;58.13;;;;;;;8.08;100.00;101979.31;4963622;28;20518;-80
2021/12/18 08:45:28;;;;;;;59.78;56.45;;;;;;;8.83;100.00;101975.88;4963781;28;20055;-81
2021/12/18 08:47:55;;;;;;;62.88;58.97;;;;;;;9.23;100.00;101972.44;4963570;28;20058;-80
2021/12/18 08:50:22;;;;;;;63.53;59.03;;;;;;;8.17;100.00;101977.50;4964064;28;20141;-80
2021/12/18 08:52:51;;;;;;;61.00;57.60;;;;;;;8.30;100.00;101974.44;4965236;28;20054;-80
2021/12/18 08:55:19;;;;;;;60.78;57.15;;;;;;;8.93;100.00;101981.88;4964389;28;20468;-80
2021/12/18 08:57:46;;;;;;;59.10;55.70;;;;;;;9.70;100.00;101976.19;4963625;28;20138;-79
2021/12/18 09:00:16;;;;;;;60.28;56.53;;;;;;;10.27;100.00;101973.38;4968038;28;20059;-80
2021/12/18 09:02:43;;;;;;;63.55;59.00;;;;;;;10.02;100.00;101969.97;4961827;28;20063;-80
2021/12/18 09:05:11;;;;;;;62.03;58.13;;;;;;;8.30;100.00;101980.53;4964370;28;20111;-81
2021/12/18 09:07:38;;;;;;;58.95;55.35;;;;;;;7.15;100.00;101980.84;4961240;28;20051;-80
2021/12/18 09:10:08;;;;;;;57.50;54.30;;;;;;;6.69;100.00;101991.50;4965996;28;20115;-79
2021/12/18 09:12:35;;;;;;;58.83;55.38;;;;;;;6.11;100.00;101978.59;4963126;28;20047;-79
2021/12/18 09:15:01;;;;;;;56.85;53.47;;;;;;;5.54;100.00;101988.31;4963496;28;20051;-79
2021/12/18 09:17:28;;;;;;;57.72;54.30;;;;;;;5.43;100.00;101991.94;4962119;28;20058;-80
2021/12/18 09:19:55;;;;;;;59.17;55.67;;;;;;;5.19;100.00;101985.31;4961054;28;20096;-79
2021/12/18 09:22:22;;;;;;;59.75;56.35;;;;;;;5.22;100.00;101987.66;4964557;28;20054;-78
2021/12/18 09:24:48;;;;;;;60.28;56.78;;;;;;;5.08;100.00;101995.97;4968424;28;20113;-79
2021/12/18 09:27:17;;;;;;;57.33;54.03;;;;;;;5.22;100.00;101986.84;4962850;28;20472;-80
2021/12/18 09:29:44;;;;;;;58.15;54.63;;;;;;;4.96;100.00;101997.94;4961317;28;20047;-78
2021/12/18 09:32:11;;;;;;;61.08;57.47;;;;;;;4.93;100.00;101992.09;4960759;28;20063;-79
2021/12/18 09:34:37;;;;;;;62.30;58.40;;;;;;;5.02;100.00;101986.00;4962243;28;20047;-79
2021/12/18 09:37:05;;;;;;;63.85;60.05;;;;;;;5.10;100.00;101991.41;4963467;28;20105;-79
2021/12/18 09:39:32;;;;;;;73.30;69.20;;;;;;;5.66;100.00;101988.03;4969750;28;20143;-79
2021/12/18 09:41:59;;;;;;;61.90;58.30;;;;;;;5.38;100.00;101988.91;4960838;28;20133;-80
2021/12/18 09:44:31;;;;;;;61.45;58.05;;;;;;;5.07;100.00;101985.59;4961132;28;20043;-79
2021/12/18 09:46:58;;;;;;;60.90;57.58;;;;;;;4.91;100.00;101987.00;4962226;28;20047;-81
2021/12/18 09:49:25;;;;;;;63.00;59.70;;;;;;;5.08;100.00;101985.44;4962241;28;20050;-79
2021/12/18 09:51:52;;;;;;;59.95;56.85;;;;;;;4.67;100.00;101987.38;4962290;28;20058;-80
2021/12/18 09:54:21;;;;;;;61.17;57.97;;;;;;;4.65;100.00;101991.09;4968585;28;20094;-79
2021/12/18 09:56:48;;;;;;;58.83;55.47;;;;;;;4.57;100.00;101994.44;4963432;28;20057;-79
2021/12/18 09:59:14;;;;;;;58.05;54.75;;;;;;;4.78;100.00;101989.03;4963163;28;20109;-79
2021/12/18 10:01:43;;;;;;;57.67;54.58;;;;;;;4.58;100.00;101993.44;4963420;28;20130;-80
2021/12/18 10:04:26;;;;;;;61.63;58.00;;;;;;;4.45;100.00;101984.97;4965508;28;20125;-80
2021/12/18 10:06:53;;;;;;;56.78;53.78;;;;;;;4.39;100.00;101986.34;4966328;28;20432;-78
2021/12/18 10:09:32;;;;;;;57.75;54.45;;;;;;;4.66;100.00;101987.50;4969001;28;20054;-80
2021/12/18 10:12:00;;;;;;;57.03;53.92;;;;;;;4.47;100.00;101985.66;4964646;28;20059;-80
2021/12/18 10:14:35;;;;;;;56.08;52.97;;;;;;;4.55;100.00;101984.03;4964333;28;20098;-79
2021/12/18 10:17:05;;;;;;;57.78;54.67;;;;;;;4.73;100.00;101981.56;4964854;28;20050;-79
2021/12/18 10:19:34;;;;;;;58.45;55.10;;;;;;;4.56;100.00;101980.41;4966736;28;20055;-80
2021/12/18 10:22:03;;;;;;;58.53;55.42;;;;;;;4.65;100.00;101978.78;4966640;28;20117;-79
2021/12/18 10:24:31;;;;;;;55.47;52.47;;;;;;;4.71;100.00;101974.78;4973085;28;20042;-79
2021/12/18 10:26:58;;;;;;;58.40;54.85;;;;;;;4.83;100.00;101971.88;4964271;28;20102;-80
2021/12/18 10:29:29;;;;;;;56.28;53.25;;;;;;;5.78;100.00;101966.75;4963984;28;20114;-79
2021/12/18 10:31:56;;;;;;;55.55;52.58;;;;;;;6.40;100.00;101967.91;4966482;28;20468;-79
2021/12/18 10:34:26;;;;;;;57.80;54.70;;;;;;;6.83;100.00;101969.81;4965135;28;20043;-79
2021/12/18 10:37:17;;;;;;;62.58;58.88;;;;;;;7.29;100.00;101965.28;4965309;28;20459;-78
2021/12/18 10:39:47;;;;;;;57.13;54.03;;;;;;;7.42;100.00;101962.22;4971698;28;20459;-80
2021/12/18 10:42:22;;;;;;;54.00;51.00;;;;;;;7.79;100.00;101959.31;4965684;28;20121;-80
2021/12/18 10:45:12;;;;;;;57.80;54.63;;;;;;;7.70;100.00;101967.34;4964901;28;20054;-80
2021/12/18 10:47:45;;;;;;;63.28;59.42;;;;;;;7.95;100.00;101963.03;4966202;28;20050;-79
2021/12/18 10:50:17;;;;;;;;;;;;;;;7.73;100.00;101964.41;4965415;28;20055;-80
2021/12/18 10:52:44;;;;;;;66.28;61.58;;;;;;;8.41;100.00;101959.09;4967870;28;19922;-83
2021/12/18 10:55:10;;;;;;;80.30;72.93;;;;;;;8.88;100.00;101957.69;4967860;28;20134;-79
2021/12/18 10:57:37;;;;;;;67.40;62.75;;;;;;;7.82;100.00;101960.81;4968686;28;20452;-79
2021/12/18 11:00:05;;;;;;;62.38;58.88;;;;;;;7.50;100.00;101957.00;4965728;28;20566;-78
2021/12/18 11:02:43;;;;;;;67.88;63.47;;;;;;;6.90;100.00;101959.50;4966654;28;20063;-79
2021/12/18 11:05:14;;;;;;;75.20;69.53;;;;;;;7.96;100.00;101954.94;4963679;28;20113;-79
2021/12/18 11:07:46;;;;;;;71.28;66.53;;;;;;;8.07;100.00;101952.97;4963623;28;20050;-79
2021/12/18 11:10:40;;;;;;;67.88;63.88;;;;;;;7.66;100.00;101950.97;4967797;28;20059;-79
2021/12/18 11:15:52;;;;;;;71.75;66.78;;;;;;;8.27;100.00;101959.69;4960836;28;20519;-80
2021/12/18 11:18:19;;;;;;;63.22;59.67;;;;;;;8.38;100.00;101953.25;4969016;28;20046;-79
2021/12/18 11:20:49;;;;;;;62.55;59.35;;;;;;;8.81;100.00;101946.09;4963818;28;20051;-79
2021/12/18 11:23:25;;;;;;;59.10;56.10;;;;;;;8.78;100.00;101949.91;4971390;28;20114;-80
2021/12/18 11:25:54;;;;;;;64.40;61.10;;;;;;;8.39;100.00;101953.13;4963861;28;20071;-79
2021/12/18 11:28:23;;;;;;;58.25;55.35;;;;;;;8.69;100.00;101950.88;4963216;28;20211;-80
2021/12/18 11:30:51;;;;;;;60.95;57.85;;;;;;;9.24;100.00;101944.94;4961089;28;20047;-79
2021/12/18 11:33:18;;;;;;;63.22;60.03;;;;;;;9.10;100.00;101948.25;4965475;28;20073;-79